sensor_id;sensor_type;location;lat;lon;timestamp;temperature;humidity
13694;DHT22;6919;52.344;14.518;2023-05-16T00:02:28;11.20;99.90
13694;DHT22;6919;52.344;14.518;2023-05-16T00:04:57;11.20;99.90
13694;DHT22;6919;52.344;14.518;2023-05-16T00:07:26;11.40;99.90
13694;DHT22;6919;52.344;14.518;2023-05-16T00:09:54;11.30;99.90
13694;DHT22;6919;52.344;14.518;2023-05-16T00:12:22;11.40;99.90
13694;DHT22;6919;52.344;14.518;2023-05-16T00:14:51;11.40;99.90
13694;DHT22;6919;52.344;14.518;2023-05-16T00:17:21;11.40;99.90
13694;DHT22;6919;52.344;14.518;2023-05-16T00:19:49;11.40;99.90
13694;DHT22;6919;52.344;14.518;2023-05-16T00:22:25;11.30;99.90
13694;DHT22;6919;52.344;14.518;2023-05-16T00:24:54;11.30;99.90
13694;DHT22;6919;52.344;14.518;2023-05-16T00:27:22;11.20;99.90
13694;DHT22;6919;52.344;14.518;2023-05-16T00:29:51;11.20;99.90
13694;DHT22;6919;52.344;14.518;2023-05-16T00:32:19;11.10;99.90
13694;DHT22;6919;52.344;14.518;2023-05-16T00:34:47;11.20;99.90
13694;DHT22;6919;52.344;14.518;2023-05-16T00:37:16;11.20;99.90
13694;DHT22;6919;52.344;14.518;2023-05-16T00:39:46;11.10;99.90
13694;DHT22;6919;52.344;14.518;2023-05-16T00:42:14;11.10;99.90
13694;DHT22;6919;52.344;14.518;2023-05-16T00:44:42;11.10;99.90
13694;DHT22;6919;52.344;14.518;2023-05-16T00:47:10;11.10;99.90
13694;DHT22;6919;52.344;14.518;2023-05-16T00:49:39;11.00;99.90
13694;DHT22;6919;52.344;14.518;2023-05-16T00:52:07;10.90;99.90
13694;DHT22;6919;52.344;14.518;2023-05-16T00:54:36;10.90;99.90
13694;DHT22;6919;52.344;14.518;2023-05-16T00:57:06;10.80;99.90
13694;DHT22;6919;52.344;14.518;2023-05-16T00:59:34;10.80;99.90
13694;DHT22;6919;52.344;14.518;2023-05-16T01:02:03;10.70;99.90
13694;DHT22;6919;52.344;14.518;2023-05-16T01:04:32;10.70;99.90
13694;DHT22;6919;52.344;14.518;2023-05-16T01:07:02;10.80;99.90
13694;DHT22;6919;52.344;14.518;2023-05-16T01:09:30;10.90;99.90
13694;DHT22;6919;52.344;14.518;2023-05-16T01:12:08;10.90;99.90
13694;DHT22;6919;52.344;14.518;2023-05-16T01:14:59;10.90;99.90
13694;DHT22;6919;52.344;14.518;2023-05-16T01:17:37;10.80;99.90
13694;DHT22;6919;52.344;14.518;2023-05-16T01:20:27;10.80;99.90
13694;DHT22;6919;52.344;14.518;2023-05-16T01:23:26;10.90;99.90
13694;DHT22;6919;52.344;14.518;2023-05-16T01:26:18;10.80;99.90
13694;DHT22;6919;52.344;14.518;2023-05-16T01:28:49;10.90;99.90
13694;DHT22;6919;52.344;14.518;2023-05-16T01:31:19;10.90;99.90
13694;DHT22;6919;52.344;14.518;2023-05-16T01:33:49;10.80;99.90
13694;DHT22;6919;52.344;14.518;2023-05-16T01:36:23;10.80;99.90
13694;DHT22;6919;52.344;14.518;2023-05-16T01:39:04;10.80;99.90
13694;DHT22;6919;52.344;14.518;2023-05-16T01:41:46;10.80;99.90
13694;DHT22;6919;52.344;14.518;2023-05-16T01:44:24;10.80;99.90
13694;DHT22;6919;52.344;14.518;2023-05-16T01:47:00;10.70;99.90
13694;DHT22;6919;52.344;14.518;2023-05-16T01:49:43;10.70;99.90
13694;DHT22;6919;52.344;14.518;2023-05-16T01:52:20;10.60;99.90
13694;DHT22;6919;52.344;14.518;2023-05-16T01:54:57;10.70;99.90
13694;DHT22;6919;52.344;14.518;2023-05-16T01:57:28;10.50;99.90
13694;DHT22;6919;52.344;14.518;2023-05-16T01:59:58;10.50;99.90
13694;DHT22;6919;52.344;14.518;2023-05-16T02:02:26;10.50;99.90
13694;DHT22;6919;52.344;14.518;2023-05-16T02:04:55;10.50;99.90
13694;DHT22;6919;52.344;14.518;2023-05-16T02:07:23;10.40;99.90
13694;DHT22;6919;52.344;14.518;2023-05-16T02:09:52;10.40;99.90
13694;DHT22;6919;52.344;14.518;2023-05-16T02:12:20;10.50;99.90
13694;DHT22;6919;52.344;14.518;2023-05-16T02:14:50;10.50;99.90
13694;DHT22;6919;52.344;14.518;2023-05-16T02:17:18;10.30;99.90
13694;DHT22;6919;52.344;14.518;2023-05-16T02:19:46;10.20;99.90
13694;DHT22;6919;52.344;14.518;2023-05-16T02:22:15;10.20;99.90
13694;DHT22;6919;52.344;14.518;2023-05-16T02:24:43;10.20;99.90
13694;DHT22;6919;52.344;14.518;2023-05-16T02:27:11;10.20;99.90
13694;DHT22;6919;52.344;14.518;2023-05-16T02:29:40;10.20;99.90
13694;DHT22;6919;52.344;14.518;2023-05-16T02:32:09;10.30;99.90
13694;DHT22;6919;52.344;14.518;2023-05-16T02:34:38;10.30;99.90
13694;DHT22;6919;52.344;14.518;2023-05-16T02:37:06;10.30;99.90
13694;DHT22;6919;52.344;14.518;2023-05-16T02:39:36;10.30;99.90
13694;DHT22;6919;52.344;14.518;2023-05-16T02:42:05;10.30;99.90
13694;DHT22;6919;52.344;14.518;2023-05-16T02:44:34;10.30;99.90
13694;DHT22;6919;52.344;14.518;2023-05-16T02:47:02;10.20;99.90
13694;DHT22;6919;52.344;14.518;2023-05-16T02:49:32;10.30;99.90
13694;DHT22;6919;52.344;14.518;2023-05-16T02:52:01;10.30;99.90
13694;DHT22;6919;52.344;14.518;2023-05-16T02:54:29;10.30;99.90
13694;DHT22;6919;52.344;14.518;2023-05-16T02:56:57;10.30;99.90
13694;DHT22;6919;52.344;14.518;2023-05-16T02:59:25;10.20;99.90
13694;DHT22;6919;52.344;14.518;2023-05-16T03:01:54;10.20;99.90
13694;DHT22;6919;52.344;14.518;2023-05-16T03:04:22;10.10;99.90
13694;DHT22;6919;52.344;14.518;2023-05-16T03:06:52;10.10;99.90
13694;DHT22;6919;52.344;14.518;2023-05-16T03:09:20;10.20;99.90
13694;DHT22;6919;52.344;14.518;2023-05-16T03:11:49;10.30;99.90
13694;DHT22;6919;52.344;14.518;2023-05-16T03:14:17;10.20;99.90
13694;DHT22;6919;52.344;14.518;2023-05-16T03:16:45;10.30;99.90
13694;DHT22;6919;52.344;14.518;2023-05-16T03:19:14;10.30;99.90
13694;DHT22;6919;52.344;14.518;2023-05-16T03:21:42;10.30;99.90
13694;DHT22;6919;52.344;14.518;2023-05-16T03:24:12;10.40;99.90
13694;DHT22;6919;52.344;14.518;2023-05-16T03:26:40;10.40;99.90
13694;DHT22;6919;52.344;14.518;2023-05-16T03:29:09;10.50;99.90
13694;DHT22;6919;52.344;14.518;2023-05-16T03:31:37;10.50;99.90
13694;DHT22;6919;52.344;14.518;2023-05-16T03:34:06;10.70;99.90
13694;DHT22;6919;52.344;14.518;2023-05-16T03:36:34;10.70;99.90
13694;DHT22;6919;52.344;14.518;2023-05-16T03:39:03;10.70;99.90
13694;DHT22;6919;52.344;14.518;2023-05-16T03:41:33;10.80;99.90
13694;DHT22;6919;52.344;14.518;2023-05-16T03:44:01;10.90;99.90
13694;DHT22;6919;52.344;14.518;2023-05-16T03:46:30;11.00;99.90
13694;DHT22;6919;52.344;14.518;2023-05-16T03:48:58;11.10;99.90
13694;DHT22;6919;52.344;14.518;2023-05-16T03:51:26;11.10;99.90
13694;DHT22;6919;52.344;14.518;2023-05-16T03:53:56;11.30;99.90
13694;DHT22;6919;52.344;14.518;2023-05-16T03:56:24;11.30;99.90
13694;DHT22;6919;52.344;14.518;2023-05-16T03:58:54;11.40;99.90
13694;DHT22;6919;52.344;14.518;2023-05-16T04:01:22;11.40;99.90
13694;DHT22;6919;52.344;14.518;2023-05-16T04:03:51;11.40;99.90
13694;DHT22;6919;52.344;14.518;2023-05-16T04:06:19;11.50;99.90
13694;DHT22;6919;52.344;14.518;2023-05-16T04:08:48;11.60;99.90
13694;DHT22;6919;52.344;14.518;2023-05-16T04:11:16;11.60;99.90
13694;DHT22;6919;52.344;14.518;2023-05-16T04:13:44;11.70;99.90
13694;DHT22;6919;52.344;14.518;2023-05-16T04:16:14;11.80;99.90
13694;DHT22;6919;52.344;14.518;2023-05-16T04:18:42;11.80;99.90
13694;DHT22;6919;52.344;14.518;2023-05-16T04:21:11;11.80;99.90
13694;DHT22;6919;52.344;14.518;2023-05-16T04:23:41;11.70;99.90
13694;DHT22;6919;52.344;14.518;2023-05-16T04:26:09;11.90;99.90
13694;DHT22;6919;52.344;14.518;2023-05-16T04:28:38;11.80;99.90
13694;DHT22;6919;52.344;14.518;2023-05-16T04:31:06;11.90;99.90
13694;DHT22;6919;52.344;14.518;2023-05-16T04:33:36;11.90;99.90
13694;DHT22;6919;52.344;14.518;2023-05-16T04:36:05;12.00;99.90
13694;DHT22;6919;52.344;14.518;2023-05-16T04:38:33;12.00;99.90
13694;DHT22;6919;52.344;14.518;2023-05-16T04:41:02;12.10;99.90
13694;DHT22;6919;52.344;14.518;2023-05-16T04:43:30;12.20;99.90
13694;DHT22;6919;52.344;14.518;2023-05-16T04:45:58;12.30;99.90
13694;DHT22;6919;52.344;14.518;2023-05-16T04:48:27;12.30;99.90
13694;DHT22;6919;52.344;14.518;2023-05-16T04:50:57;12.40;99.90
13694;DHT22;6919;52.344;14.518;2023-05-16T04:53:25;12.40;99.90
13694;DHT22;6919;52.344;14.518;2023-05-16T04:55:54;12.50;99.90
13694;DHT22;6919;52.344;14.518;2023-05-16T04:58:22;12.50;99.90
13694;DHT22;6919;52.344;14.518;2023-05-16T05:00:51;12.40;99.90
13694;DHT22;6919;52.344;14.518;2023-05-16T05:03:22;12.40;99.90
13694;DHT22;6919;52.344;14.518;2023-05-16T05:05:50;12.40;99.90
13694;DHT22;6919;52.344;14.518;2023-05-16T05:08:20;12.40;99.90
13694;DHT22;6919;52.344;14.518;2023-05-16T05:10:49;12.30;99.90
13694;DHT22;6919;52.344;14.518;2023-05-16T05:13:17;12.30;99.90
13694;DHT22;6919;52.344;14.518;2023-05-16T05:15:46;12.20;99.90
13694;DHT22;6919;52.344;14.518;2023-05-16T05:18:16;12.40;99.90
13694;DHT22;6919;52.344;14.518;2023-05-16T05:20:44;12.30;99.90
13694;DHT22;6919;52.344;14.518;2023-05-16T05:23:13;12.30;99.90
13694;DHT22;6919;52.344;14.518;2023-05-16T05:25:42;12.30;99.90
13694;DHT22;6919;52.344;14.518;2023-05-16T05:28:11;12.40;99.90
13694;DHT22;6919;52.344;14.518;2023-05-16T05:30:40;12.50;99.90
13694;DHT22;6919;52.344;14.518;2023-05-16T05:33:10;12.60;99.90
13694;DHT22;6919;52.344;14.518;2023-05-16T05:35:41;12.60;99.90
13694;DHT22;6919;52.344;14.518;2023-05-16T05:38:09;12.60;99.90
13694;DHT22;6919;52.344;14.518;2023-05-16T05:40:38;12.70;99.90
13694;DHT22;6919;52.344;14.518;2023-05-16T05:43:08;12.80;99.90
13694;DHT22;6919;52.344;14.518;2023-05-16T05:45:36;12.70;99.90
13694;DHT22;6919;52.344;14.518;2023-05-16T05:48:05;12.80;99.90
13694;DHT22;6919;52.344;14.518;2023-05-16T05:50:34;12.80;99.90
13694;DHT22;6919;52.344;14.518;2023-05-16T05:53:02;12.90;99.90
13694;DHT22;6919;52.344;14.518;2023-05-16T05:55:30;12.90;99.90
13694;DHT22;6919;52.344;14.518;2023-05-16T05:57:59;12.90;99.90
13694;DHT22;6919;52.344;14.518;2023-05-16T06:00:28;12.90;99.90
13694;DHT22;6919;52.344;14.518;2023-05-16T06:02:57;13.00;99.90
13694;DHT22;6919;52.344;14.518;2023-05-16T06:05:25;13.20;51.20
13694;DHT22;6919;52.344;14.518;2023-05-16T06:07:54;13.20;1.00
13694;DHT22;6919;52.344;14.518;2023-05-16T06:10:22;13.20;1.00
13694;DHT22;6919;52.344;14.518;2023-05-16T06:12:50;13.30;1.00
13694;DHT22;6919;52.344;14.518;2023-05-16T06:15:19;13.20;1.00
13694;DHT22;6919;52.344;14.518;2023-05-16T06:17:48;13.10;1.00
13694;DHT22;6919;52.344;14.518;2023-05-16T06:20:17;13.10;1.00
13694;DHT22;6919;52.344;14.518;2023-05-16T06:22:45;13.10;1.00
13694;DHT22;6919;52.344;14.518;2023-05-16T06:25:13;13.20;1.00
13694;DHT22;6919;52.344;14.518;2023-05-16T06:27:42;13.30;1.00
13694;DHT22;6919;52.344;14.518;2023-05-16T06:30:10;13.40;1.00
13694;DHT22;6919;52.344;14.518;2023-05-16T06:32:39;13.40;1.00
13694;DHT22;6919;52.344;14.518;2023-05-16T06:35:09;13.30;1.00
13694;DHT22;6919;52.344;14.518;2023-05-16T06:37:37;13.30;1.00
13694;DHT22;6919;52.344;14.518;2023-05-16T06:40:09;13.30;1.00
13694;DHT22;6919;52.344;14.518;2023-05-16T06:42:38;13.20;1.00
13694;DHT22;6919;52.344;14.518;2023-05-16T06:45:07;13.10;1.00
13694;DHT22;6919;52.344;14.518;2023-05-16T06:47:37;12.90;1.00
13694;DHT22;6919;52.344;14.518;2023-05-16T06:50:07;12.70;1.00
13694;DHT22;6919;52.344;14.518;2023-05-16T06:52:37;12.60;1.00
13694;DHT22;6919;52.344;14.518;2023-05-16T06:55:06;12.60;1.00
13694;DHT22;6919;52.344;14.518;2023-05-16T06:57:35;12.40;1.00
13694;DHT22;6919;52.344;14.518;2023-05-16T07:00:05;12.30;1.00
13694;DHT22;6919;52.344;14.518;2023-05-16T07:02:34;12.30;1.00
13694;DHT22;6919;52.344;14.518;2023-05-16T07:05:06;12.30;9.60
13694;DHT22;6919;52.344;14.518;2023-05-16T07:07:36;12.30;1.00
13694;DHT22;6919;52.344;14.518;2023-05-16T07:10:05;12.40;1.80
13694;DHT22;6919;52.344;14.518;2023-05-16T07:12:34;12.50;1.00
13694;DHT22;6919;52.344;14.518;2023-05-16T07:15:05;12.70;1.00
13694;DHT22;6919;52.344;14.518;2023-05-16T07:17:34;12.70;1.00
13694;DHT22;6919;52.344;14.518;2023-05-16T07:20:03;12.80;1.00
13694;DHT22;6919;52.344;14.518;2023-05-16T07:22:32;12.80;1.00
13694;DHT22;6919;52.344;14.518;2023-05-16T07:25:02;13.00;1.00
13694;DHT22;6919;52.344;14.518;2023-05-16T07:27:31;13.10;1.00
13694;DHT22;6919;52.344;14.518;2023-05-16T07:29:59;13.10;1.00
13694;DHT22;6919;52.344;14.518;2023-05-16T07:32:28;13.00;1.00
13694;DHT22;6919;52.344;14.518;2023-05-16T07:34:57;13.00;1.00
13694;DHT22;6919;52.344;14.518;2023-05-16T07:37:25;12.80;1.00
13694;DHT22;6919;52.344;14.518;2023-05-16T07:39:56;12.60;1.00
13694;DHT22;6919;52.344;14.518;2023-05-16T07:42:27;12.70;1.00
13694;DHT22;6919;52.344;14.518;2023-05-16T07:44:55;12.80;1.00
13694;DHT22;6919;52.344;14.518;2023-05-16T07:47:26;12.70;1.00
13694;DHT22;6919;52.344;14.518;2023-05-16T07:49:55;12.70;1.00
13694;DHT22;6919;52.344;14.518;2023-05-16T07:52:24;12.50;1.00
13694;DHT22;6919;52.344;14.518;2023-05-16T07:54:52;12.80;1.00
13694;DHT22;6919;52.344;14.518;2023-05-16T07:57:21;12.70;1.00
13694;DHT22;6919;52.344;14.518;2023-05-16T07:59:52;12.90;1.00
13694;DHT22;6919;52.344;14.518;2023-05-16T08:02:21;12.70;1.00
13694;DHT22;6919;52.344;14.518;2023-05-16T08:04:52;12.60;1.00
13694;DHT22;6919;52.344;14.518;2023-05-16T08:07:21;12.70;1.00
13694;DHT22;6919;52.344;14.518;2023-05-16T08:09:49;12.60;1.00
13694;DHT22;6919;52.344;14.518;2023-05-16T08:12:18;12.50;1.00
13694;DHT22;6919;52.344;14.518;2023-05-16T08:14:46;12.50;1.00
13694;DHT22;6919;52.344;14.518;2023-05-16T08:17:16;12.40;1.00
13694;DHT22;6919;52.344;14.518;2023-05-16T08:19:45;12.20;1.00
13694;DHT22;6919;52.344;14.518;2023-05-16T08:22:13;12.20;1.00
13694;DHT22;6919;52.344;14.518;2023-05-16T08:24:42;12.50;1.00
13694;DHT22;6919;52.344;14.518;2023-05-16T08:27:10;12.70;1.00
13694;DHT22;6919;52.344;14.518;2023-05-16T08:29:39;12.70;1.00
13694;DHT22;6919;52.344;14.518;2023-05-16T08:32:08;13.00;1.00
13694;DHT22;6919;52.344;14.518;2023-05-16T08:34:38;13.00;1.00
13694;DHT22;6919;52.344;14.518;2023-05-16T08:37:07;13.00;1.00
13694;DHT22;6919;52.344;14.518;2023-05-16T08:39:37;13.10;1.00
13694;DHT22;6919;52.344;14.518;2023-05-16T08:42:07;13.20;1.00
13694;DHT22;6919;52.344;14.518;2023-05-16T08:44:35;13.30;1.00
13694;DHT22;6919;52.344;14.518;2023-05-16T08:47:10;13.40;1.00
13694;DHT22;6919;52.344;14.518;2023-05-16T08:49:47;13.40;99.90
13694;DHT22;6919;52.344;14.518;2023-05-16T08:52:20;13.40;99.90
13694;DHT22;6919;52.344;14.518;2023-05-16T08:54:51;13.30;1.00
13694;DHT22;6919;52.344;14.518;2023-05-16T08:57:37;13.40;1.00
13694;DHT22;6919;52.344;14.518;2023-05-16T09:00:07;13.40;99.90
13694;DHT22;6919;52.344;14.518;2023-05-16T09:02:39;13.40;1.00
13694;DHT22;6919;52.344;14.518;2023-05-16T09:05:11;13.30;1.00
13694;DHT22;6919;52.344;14.518;2023-05-16T09:07:41;13.10;1.00
13694;DHT22;6919;52.344;14.518;2023-05-16T09:10:11;13.00;1.00
13694;DHT22;6919;52.344;14.518;2023-05-16T09:12:40;13.00;1.00
13694;DHT22;6919;52.344;14.518;2023-05-16T09:15:10;12.90;1.00
13694;DHT22;6919;52.344;14.518;2023-05-16T09:17:41;12.90;1.00
13694;DHT22;6919;52.344;14.518;2023-05-16T09:20:16;12.90;1.00
13694;DHT22;6919;52.344;14.518;2023-05-16T09:22:50;13.00;1.00
13694;DHT22;6919;52.344;14.518;2023-05-16T09:25:21;12.80;1.00
13694;DHT22;6919;52.344;14.518;2023-05-16T09:27:53;12.80;1.00
13694;DHT22;6919;52.344;14.518;2023-05-16T09:30:26;13.00;1.00
13694;DHT22;6919;52.344;14.518;2023-05-16T09:32:56;13.20;1.00
13694;DHT22;6919;52.344;14.518;2023-05-16T09:35:27;13.60;1.00
13694;DHT22;6919;52.344;14.518;2023-05-16T09:37:58;13.70;99.90
13694;DHT22;6919;52.344;14.518;2023-05-16T09:40:26;14.00;1.00
13694;DHT22;6919;52.344;14.518;2023-05-16T09:43:01;14.10;99.90
13694;DHT22;6919;52.344;14.518;2023-05-16T09:45:31;14.00;99.90
13694;DHT22;6919;52.344;14.518;2023-05-16T09:48:04;14.00;1.00
13694;DHT22;6919;52.344;14.518;2023-05-16T09:50:36;14.20;1.00
13694;DHT22;6919;52.344;14.518;2023-05-16T09:53:05;14.30;1.00
13694;DHT22;6919;52.344;14.518;2023-05-16T09:55:33;14.30;99.90
13694;DHT22;6919;52.344;14.518;2023-05-16T09:58:02;14.00;1.00
13694;DHT22;6919;52.344;14.518;2023-05-16T10:00:31;13.80;1.00
13694;DHT22;6919;52.344;14.518;2023-05-16T10:03:01;13.80;99.90
13694;DHT22;6919;52.344;14.518;2023-05-16T10:05:32;13.80;99.90
13694;DHT22;6919;52.344;14.518;2023-05-16T10:08:03;13.70;73.70
13694;DHT22;6919;52.344;14.518;2023-05-16T10:10:35;13.90;99.90
13694;DHT22;6919;52.344;14.518;2023-05-16T10:13:07;14.20;50.60
13694;DHT22;6919;52.344;14.518;2023-05-16T10:15:38;14.30;99.90
13694;DHT22;6919;52.344;14.518;2023-05-16T10:18:08;14.30;1.00
13694;DHT22;6919;52.344;14.518;2023-05-16T10:20:41;14.10;99.90
13694;DHT22;6919;52.344;14.518;2023-05-16T10:23:16;14.20;1.00
13694;DHT22;6919;52.344;14.518;2023-05-16T10:25:47;14.40;1.00
13694;DHT22;6919;52.344;14.518;2023-05-16T10:28:17;14.20;99.90
13694;DHT22;6919;52.344;14.518;2023-05-16T10:30:46;13.90;99.90
13694;DHT22;6919;52.344;14.518;2023-05-16T10:33:16;13.90;99.90
13694;DHT22;6919;52.344;14.518;2023-05-16T10:35:45;13.60;1.00
13694;DHT22;6919;52.344;14.518;2023-05-16T10:38:17;13.50;1.00
13694;DHT22;6919;52.344;14.518;2023-05-16T10:40:46;13.50;99.90
13694;DHT22;6919;52.344;14.518;2023-05-16T10:43:23;13.70;99.90
13694;DHT22;6919;52.344;14.518;2023-05-16T10:45:56;13.60;99.90
13694;DHT22;6919;52.344;14.518;2023-05-16T10:48:30;13.60;1.00
13694;DHT22;6919;52.344;14.518;2023-05-16T10:51:00;13.60;1.00
13694;DHT22;6919;52.344;14.518;2023-05-16T10:53:32;13.60;23.80
13694;DHT22;6919;52.344;14.518;2023-05-16T10:56:09;13.70;99.90
13694;DHT22;6919;52.344;14.518;2023-05-16T10:58:46;13.60;99.90
13694;DHT22;6919;52.344;14.518;2023-05-16T11:01:22;13.60;1.00
13694;DHT22;6919;52.344;14.518;2023-05-16T11:04:05;13.80;99.90
13694;DHT22;6919;52.344;14.518;2023-05-16T11:06:52;13.80;99.90
13694;DHT22;6919;52.344;14.518;2023-05-16T11:09:26;13.90;1.00
13694;DHT22;6919;52.344;14.518;2023-05-16T11:11:57;14.00;99.90
13694;DHT22;6919;52.344;14.518;2023-05-16T11:14:28;13.60;1.00
13694;DHT22;6919;52.344;14.518;2023-05-16T11:17:07;13.50;99.90
13694;DHT22;6919;52.344;14.518;2023-05-16T11:19:40;13.30;1.00
13694;DHT22;6919;52.344;14.518;2023-05-16T11:22:22;13.30;99.90
13694;DHT22;6919;52.344;14.518;2023-05-16T11:24:58;13.50;1.00
13694;DHT22;6919;52.344;14.518;2023-05-16T11:27:29;13.60;99.90
13694;DHT22;6919;52.344;14.518;2023-05-16T11:30:10;13.50;56.60
13694;DHT22;6919;52.344;14.518;2023-05-16T11:32:44;13.40;1.00
13694;DHT22;6919;52.344;14.518;2023-05-16T11:35:15;13.30;99.90
13694;DHT22;6919;52.344;14.518;2023-05-16T11:37:46;13.30;1.00
13694;DHT22;6919;52.344;14.518;2023-05-16T11:40:16;13.20;1.00
13694;DHT22;6919;52.344;14.518;2023-05-16T11:42:46;13.30;1.00
13694;DHT22;6919;52.344;14.518;2023-05-16T11:45:16;13.40;42.70
13694;DHT22;6919;52.344;14.518;2023-05-16T11:47:47;13.70;99.90
13694;DHT22;6919;52.344;14.518;2023-05-16T11:50:17;13.70;1.00
13694;DHT22;6919;52.344;14.518;2023-05-16T11:52:48;13.80;1.00
13694;DHT22;6919;52.344;14.518;2023-05-16T11:55:23;13.90;99.90
13694;DHT22;6919;52.344;14.518;2023-05-16T11:58:09;13.80;99.90
13694;DHT22;6919;52.344;14.518;2023-05-16T12:00:46;13.60;99.90
13694;DHT22;6919;52.344;14.518;2023-05-16T12:03:17;13.60;99.90
13694;DHT22;6919;52.344;14.518;2023-05-16T12:05:50;13.70;99.90
13694;DHT22;6919;52.344;14.518;2023-05-16T12:08:20;13.60;99.90
13694;DHT22;6919;52.344;14.518;2023-05-16T12:10:52;13.50;99.90
13694;DHT22;6919;52.344;14.518;2023-05-16T12:13:22;13.60;1.00
13694;DHT22;6919;52.344;14.518;2023-05-16T12:15:52;13.60;29.10
13694;DHT22;6919;52.344;14.518;2023-05-16T12:18:21;13.90;99.90
13694;DHT22;6919;52.344;14.518;2023-05-16T12:20:51;14.00;99.90
13694;DHT22;6919;52.344;14.518;2023-05-16T12:23:19;14.00;99.90
13694;DHT22;6919;52.344;14.518;2023-05-16T12:25:47;13.80;1.00
13694;DHT22;6919;52.344;14.518;2023-05-16T12:28:17;14.00;1.00
13694;DHT22;6919;52.344;14.518;2023-05-16T12:30:46;14.10;1.00
13694;DHT22;6919;52.344;14.518;2023-05-16T12:33:15;14.40;1.00
13694;DHT22;6919;52.344;14.518;2023-05-16T12:35:44;14.40;99.90
13694;DHT22;6919;52.344;14.518;2023-05-16T12:38:14;14.20;99.90
13694;DHT22;6919;52.344;14.518;2023-05-16T12:40:43;14.30;99.90
13694;DHT22;6919;52.344;14.518;2023-05-16T12:43:15;14.40;1.00
13694;DHT22;6919;52.344;14.518;2023-05-16T12:45:49;14.40;99.90
13694;DHT22;6919;52.344;14.518;2023-05-16T12:48:19;14.40;99.90
13694;DHT22;6919;52.344;14.518;2023-05-16T12:50:47;14.50;38.90
13694;DHT22;6919;52.344;14.518;2023-05-16T12:53:17;14.70;99.90
13694;DHT22;6919;52.344;14.518;2023-05-16T12:55:46;15.10;99.90
13694;DHT22;6919;52.344;14.518;2023-05-16T12:58:14;15.30;1.00
13694;DHT22;6919;52.344;14.518;2023-05-16T13:00:45;15.60;1.00
13694;DHT22;6919;52.344;14.518;2023-05-16T13:03:14;15.50;1.00
13694;DHT22;6919;52.344;14.518;2023-05-16T13:05:43;15.10;1.00
13694;DHT22;6919;52.344;14.518;2023-05-16T13:08:12;15.20;1.00
13694;DHT22;6919;52.344;14.518;2023-05-16T13:10:40;15.10;1.00
13694;DHT22;6919;52.344;14.518;2023-05-16T13:13:09;15.10;1.00
13694;DHT22;6919;52.344;14.518;2023-05-16T13:15:44;15.20;1.00
13694;DHT22;6919;52.344;14.518;2023-05-16T13:18:13;15.20;1.00
13694;DHT22;6919;52.344;14.518;2023-05-16T13:20:42;15.30;1.00
13694;DHT22;6919;52.344;14.518;2023-05-16T13:23:10;14.90;1.00
13694;DHT22;6919;52.344;14.518;2023-05-16T13:25:41;15.00;1.00
13694;DHT22;6919;52.344;14.518;2023-05-16T13:28:14;14.90;1.00
13694;DHT22;6919;52.344;14.518;2023-05-16T13:30:44;14.70;1.00
13694;DHT22;6919;52.344;14.518;2023-05-16T13:33:12;14.70;1.00
13694;DHT22;6919;52.344;14.518;2023-05-16T13:35:40;14.50;99.90
13694;DHT22;6919;52.344;14.518;2023-05-16T13:38:10;14.30;99.90
13694;DHT22;6919;52.344;14.518;2023-05-16T13:40:38;14.10;99.90
13694;DHT22;6919;52.344;14.518;2023-05-16T13:43:07;14.20;99.90
13694;DHT22;6919;52.344;14.518;2023-05-16T13:45:36;14.30;99.90
13694;DHT22;6919;52.344;14.518;2023-05-16T13:48:06;14.10;99.90
13694;DHT22;6919;52.344;14.518;2023-05-16T13:50:35;14.10;99.90
13694;DHT22;6919;52.344;14.518;2023-05-16T13:53:09;14.20;99.90
13694;DHT22;6919;52.344;14.518;2023-05-16T13:55:37;14.00;91.10
13694;DHT22;6919;52.344;14.518;2023-05-16T13:58:06;14.00;99.90
13694;DHT22;6919;52.344;14.518;2023-05-16T14:00:35;14.00;99.90
13694;DHT22;6919;52.344;14.518;2023-05-16T14:03:13;14.00;99.90
13694;DHT22;6919;52.344;14.518;2023-05-16T14:05:41;14.20;99.90
13694;DHT22;6919;52.344;14.518;2023-05-16T14:08:10;14.30;1.00
13694;DHT22;6919;52.344;14.518;2023-05-16T14:10:38;14.50;1.00
13694;DHT22;6919;52.344;14.518;2023-05-16T14:13:07;14.60;1.00
13694;DHT22;6919;52.344;14.518;2023-05-16T14:15:36;14.40;1.00
13694;DHT22;6919;52.344;14.518;2023-05-16T14:18:05;14.60;1.00
13694;DHT22;6919;52.344;14.518;2023-05-16T14:20:35;14.60;1.00
13694;DHT22;6919;52.344;14.518;2023-05-16T14:23:03;14.80;1.00
13694;DHT22;6919;52.344;14.518;2023-05-16T14:25:32;15.00;1.00
13694;DHT22;6919;52.344;14.518;2023-05-16T14:28:00;14.70;1.00
13694;DHT22;6919;52.344;14.518;2023-05-16T14:30:29;14.70;1.00
13694;DHT22;6919;52.344;14.518;2023-05-16T14:32:57;14.30;1.00
13694;DHT22;6919;52.344;14.518;2023-05-16T14:35:27;14.30;1.00
13694;DHT22;6919;52.344;14.518;2023-05-16T14:37:57;14.40;1.00
13694;DHT22;6919;52.344;14.518;2023-05-16T14:40:25;14.50;1.00
13694;DHT22;6919;52.344;14.518;2023-05-16T14:42:53;14.50;1.00
13694;DHT22;6919;52.344;14.518;2023-05-16T14:45:22;14.20;1.00
13694;DHT22;6919;52.344;14.518;2023-05-16T14:47:50;14.10;1.00
13694;DHT22;6919;52.344;14.518;2023-05-16T14:50:19;14.10;1.00
13694;DHT22;6919;52.344;14.518;2023-05-16T14:52:47;14.30;99.90
13694;DHT22;6919;52.344;14.518;2023-05-16T14:55:17;14.50;1.00
13694;DHT22;6919;52.344;14.518;2023-05-16T14:57:46;14.40;1.00
13694;DHT22;6919;52.344;14.518;2023-05-16T15:00:23;14.40;1.00
13694;DHT22;6919;52.344;14.518;2023-05-16T15:02:53;14.60;1.00
13694;DHT22;6919;52.344;14.518;2023-05-16T15:05:22;14.80;1.00
13694;DHT22;6919;52.344;14.518;2023-05-16T15:07:51;15.20;1.00
13694;DHT22;6919;52.344;14.518;2023-05-16T15:10:21;15.70;99.90
13694;DHT22;6919;52.344;14.518;2023-05-16T15:12:49;15.70;99.90
13694;DHT22;6919;52.344;14.518;2023-05-16T15:15:18;15.60;99.90
13694;DHT22;6919;52.344;14.518;2023-05-16T15:17:46;16.30;99.90
13694;DHT22;6919;52.344;14.518;2023-05-16T15:20:15;16.50;99.90
13694;DHT22;6919;52.344;14.518;2023-05-16T15:22:48;16.60;99.90
13694;DHT22;6919;52.344;14.518;2023-05-16T15:25:16;16.80;99.90
13694;DHT22;6919;52.344;14.518;2023-05-16T15:27:46;17.20;99.90
13694;DHT22;6919;52.344;14.518;2023-05-16T15:30:15;16.90;99.90
13694;DHT22;6919;52.344;14.518;2023-05-16T15:32:43;16.70;99.90
13694;DHT22;6919;52.344;14.518;2023-05-16T15:35:11;16.70;99.90
13694;DHT22;6919;52.344;14.518;2023-05-16T15:37:39;16.60;99.90
13694;DHT22;6919;52.344;14.518;2023-05-16T15:40:10;16.80;99.90
13694;DHT22;6919;52.344;14.518;2023-05-16T15:42:39;16.50;99.90
13694;DHT22;6919;52.344;14.518;2023-05-16T15:45:11;16.50;99.90
13694;DHT22;6919;52.344;14.518;2023-05-16T15:47:40;16.60;99.90
13694;DHT22;6919;52.344;14.518;2023-05-16T15:50:09;16.60;99.90
13694;DHT22;6919;52.344;14.518;2023-05-16T15:52:38;16.70;99.90
13694;DHT22;6919;52.344;14.518;2023-05-16T15:55:07;16.30;99.90
13694;DHT22;6919;52.344;14.518;2023-05-16T15:57:37;16.30;99.90